sensor_id;sensor_type;location;lat;lon;timestamp;temperature;humidity
22645;DHT22;11489;50.834;6.752;2022-07-06T00:01:37;15.00;55.30
22645;DHT22;11489;50.834;6.752;2022-07-06T00:04:03;15.00;55.40
22645;DHT22;11489;50.834;6.752;2022-07-06T00:06:29;14.90;55.50
22645;DHT22;11489;50.834;6.752;2022-07-06T00:08:54;14.80;55.60
22645;DHT22;11489;50.834;6.752;2022-07-06T00:11:20;14.70;55.70
22645;DHT22;11489;50.834;6.752;2022-07-06T00:13:46;14.60;55.80
22645;DHT22;11489;50.834;6.752;2022-07-06T00:16:12;14.50;55.90
22645;DHT22;11489;50.834;6.752;2022-07-06T00:18:38;14.40;56.00
22645;DHT22;11489;50.834;6.752;2022-07-06T00:21:04;14.30;56.10
22645;DHT22;11489;50.834;6.752;2022-07-06T00:23:29;14.20;56.20
22645;DHT22;11489;50.834;6.752;2022-07-06T00:25:55;14.10;56.40
22645;DHT22;11489;50.834;6.752;2022-07-06T00:28:21;14.00;56.50
22645;DHT22;11489;50.834;6.752;2022-07-06T00:30:46;13.90;56.40
22645;DHT22;11489;50.834;6.752;2022-07-06T00:33:12;13.80;56.70
22645;DHT22;11489;50.834;6.752;2022-07-06T00:35:38;13.80;56.90
22645;DHT22;11489;50.834;6.752;2022-07-06T00:38:04;13.70;57.10
22645;DHT22;11489;50.834;6.752;2022-07-06T00:40:29;13.60;57.20
22645;DHT22;11489;50.834;6.752;2022-07-06T00:42:55;13.50;57.30
22645;DHT22;11489;50.834;6.752;2022-07-06T00:45:22;13.50;57.60
22645;DHT22;11489;50.834;6.752;2022-07-06T00:47:48;13.40;57.70
22645;DHT22;11489;50.834;6.752;2022-07-06T00:50:15;13.30;57.70
22645;DHT22;11489;50.834;6.752;2022-07-06T00:53:00;13.20;57.90
22645;DHT22;11489;50.834;6.752;2022-07-06T00:55:27;13.20;58.40
22645;DHT22;11489;50.834;6.752;2022-07-06T00:57:54;13.10;58.00
22645;DHT22;11489;50.834;6.752;2022-07-06T01:00:23;13.00;58.10
22645;DHT22;11489;50.834;6.752;2022-07-06T01:02:50;13.00;58.20
22645;DHT22;11489;50.834;6.752;2022-07-06T01:05:16;12.90;58.40
22645;DHT22;11489;50.834;6.752;2022-07-06T01:07:44;12.90;58.30
22645;DHT22;11489;50.834;6.752;2022-07-06T01:10:11;12.80;58.60
22645;DHT22;11489;50.834;6.752;2022-07-06T01:12:39;12.80;58.70
22645;DHT22;11489;50.834;6.752;2022-07-06T01:15:17;12.80;58.80
22645;DHT22;11489;50.834;6.752;2022-07-06T01:17:43;12.80;59.00
22645;DHT22;11489;50.834;6.752;2022-07-06T01:20:20;12.80;59.00
22645;DHT22;11489;50.834;6.752;2022-07-06T01:22:48;12.80;58.90
22645;DHT22;11489;50.834;6.752;2022-07-06T01:25:15;12.80;59.10
22645;DHT22;11489;50.834;6.752;2022-07-06T01:27:42;12.70;59.00
22645;DHT22;11489;50.834;6.752;2022-07-06T01:30:11;12.70;59.30
22645;DHT22;11489;50.834;6.752;2022-07-06T01:32:38;12.70;59.40
22645;DHT22;11489;50.834;6.752;2022-07-06T01:35:06;12.70;59.30
22645;DHT22;11489;50.834;6.752;2022-07-06T01:37:32;12.70;59.70
22645;DHT22;11489;50.834;6.752;2022-07-06T01:39:59;12.60;59.60
22645;DHT22;11489;50.834;6.752;2022-07-06T01:42:26;12.60;59.80
22645;DHT22;11489;50.834;6.752;2022-07-06T01:44:52;12.50;59.80
22645;DHT22;11489;50.834;6.752;2022-07-06T01:50:40;12.50;61.10
22645;DHT22;11489;50.834;6.752;2022-07-06T01:53:05;12.40;59.70
22645;DHT22;11489;50.834;6.752;2022-07-06T01:55:31;12.40;60.00
22645;DHT22;11489;50.834;6.752;2022-07-06T01:57:57;12.30;60.20
22645;DHT22;11489;50.834;6.752;2022-07-06T02:00:23;12.30;60.30
22645;DHT22;11489;50.834;6.752;2022-07-06T02:02:49;12.20;60.50
22645;DHT22;11489;50.834;6.752;2022-07-06T02:05:15;12.10;60.50
22645;DHT22;11489;50.834;6.752;2022-07-06T02:07:40;12.10;60.70
22645;DHT22;11489;50.834;6.752;2022-07-06T02:10:06;12.00;60.80
22645;DHT22;11489;50.834;6.752;2022-07-06T02:12:32;11.90;60.90
22645;DHT22;11489;50.834;6.752;2022-07-06T02:14:57;11.90;61.10
22645;DHT22;11489;50.834;6.752;2022-07-06T02:17:23;11.80;61.30
22645;DHT22;11489;50.834;6.752;2022-07-06T02:19:49;11.70;61.40
22645;DHT22;11489;50.834;6.752;2022-07-06T02:22:14;11.60;61.60
22645;DHT22;11489;50.834;6.752;2022-07-06T02:24:40;11.60;61.90
22645;DHT22;11489;50.834;6.752;2022-07-06T02:27:06;11.50;61.90
22645;DHT22;11489;50.834;6.752;2022-07-06T02:29:31;11.50;62.20
22645;DHT22;11489;50.834;6.752;2022-07-06T02:31:57;11.50;62.40
22645;DHT22;11489;50.834;6.752;2022-07-06T02:34:22;11.40;62.60
22645;DHT22;11489;50.834;6.752;2022-07-06T02:36:48;11.40;62.60
22645;DHT22;11489;50.834;6.752;2022-07-06T02:39:14;11.40;62.70
22645;DHT22;11489;50.834;6.752;2022-07-06T02:41:39;11.40;62.80
22645;DHT22;11489;50.834;6.752;2022-07-06T02:44:05;11.40;62.90
22645;DHT22;11489;50.834;6.752;2022-07-06T02:46:31;11.40;63.00
22645;DHT22;11489;50.834;6.752;2022-07-06T02:48:56;11.40;63.20
22645;DHT22;11489;50.834;6.752;2022-07-06T02:51:22;11.30;63.20
22645;DHT22;11489;50.834;6.752;2022-07-06T02:53:49;11.40;63.40
22645;DHT22;11489;50.834;6.752;2022-07-06T02:56:14;11.30;63.40
22645;DHT22;11489;50.834;6.752;2022-07-06T02:58:40;11.30;63.40
22645;DHT22;11489;50.834;6.752;2022-07-06T03:01:06;11.30;63.50
22645;DHT22;11489;50.834;6.752;2022-07-06T03:03:32;11.30;63.60
22645;DHT22;11489;50.834;6.752;2022-07-06T03:05:58;11.30;63.70
22645;DHT22;11489;50.834;6.752;2022-07-06T03:08:23;11.20;63.70
22645;DHT22;11489;50.834;6.752;2022-07-06T03:10:49;11.20;63.70
22645;DHT22;11489;50.834;6.752;2022-07-06T03:13:15;11.10;64.30
22645;DHT22;11489;50.834;6.752;2022-07-06T03:15:40;11.00;63.60
22645;DHT22;11489;50.834;6.752;2022-07-06T03:18:06;11.00;63.70
22645;DHT22;11489;50.834;6.752;2022-07-06T03:20:32;10.80;63.70
22645;DHT22;11489;50.834;6.752;2022-07-06T03:22:57;10.70;63.90
22645;DHT22;11489;50.834;6.752;2022-07-06T03:25:23;10.70;64.20
22645;DHT22;11489;50.834;6.752;2022-07-06T03:27:49;10.50;64.40
22645;DHT22;11489;50.834;6.752;2022-07-06T03:30:14;10.50;64.60
22645;DHT22;11489;50.834;6.752;2022-07-06T03:32:40;10.40;64.90
22645;DHT22;11489;50.834;6.752;2022-07-06T03:35:06;10.30;65.00
22645;DHT22;11489;50.834;6.752;2022-07-06T03:37:32;10.20;65.20
22645;DHT22;11489;50.834;6.752;2022-07-06T03:39:58;10.20;65.60
22645;DHT22;11489;50.834;6.752;2022-07-06T03:42:23;10.20;65.90
22645;DHT22;11489;50.834;6.752;2022-07-06T03:44:49;10.10;66.10
22645;DHT22;11489;50.834;6.752;2022-07-06T03:47:15;10.00;66.30
22645;DHT22;11489;50.834;6.752;2022-07-06T03:49:40;10.00;66.60
22645;DHT22;11489;50.834;6.752;2022-07-06T03:52:06;10.00;67.10
22645;DHT22;11489;50.834;6.752;2022-07-06T03:54:32;10.00;67.50
22645;DHT22;11489;50.834;6.752;2022-07-06T03:56:57;10.10;67.80
22645;DHT22;11489;50.834;6.752;2022-07-06T03:59:23;10.20;67.90
22645;DHT22;11489;50.834;6.752;2022-07-06T04:01:48;10.20;68.00
22645;DHT22;11489;50.834;6.752;2022-07-06T04:04:14;10.30;68.20
22645;DHT22;11489;50.834;6.752;2022-07-06T04:06:40;10.40;68.50
22645;DHT22;11489;50.834;6.752;2022-07-06T04:09:05;10.60;69.10
22645;DHT22;11489;50.834;6.752;2022-07-06T04:11:31;10.80;69.60
22645;DHT22;11489;50.834;6.752;2022-07-06T04:13:57;11.00;70.00
22645;DHT22;11489;50.834;6.752;2022-07-06T04:16:22;11.30;70.30
22645;DHT22;11489;50.834;6.752;2022-07-06T04:18:48;11.70;70.70
22645;DHT22;11489;50.834;6.752;2022-07-06T04:21:13;12.00;70.50
22645;DHT22;11489;50.834;6.752;2022-07-06T04:23:39;12.40;70.30
22645;DHT22;11489;50.834;6.752;2022-07-06T04:26:05;12.80;69.90
22645;DHT22;11489;50.834;6.752;2022-07-06T04:28:30;13.20;69.40
22645;DHT22;11489;50.834;6.752;2022-07-06T04:30:56;13.50;68.50
22645;DHT22;11489;50.834;6.752;2022-07-06T04:33:22;13.80;67.80
22645;DHT22;11489;50.834;6.752;2022-07-06T04:35:47;14.00;67.10
22645;DHT22;11489;50.834;6.752;2022-07-06T04:38:13;14.20;66.30
22645;DHT22;11489;50.834;6.752;2022-07-06T04:40:39;14.30;65.60
22645;DHT22;11489;50.834;6.752;2022-07-06T04:43:04;14.30;64.80
22645;DHT22;11489;50.834;6.752;2022-07-06T04:45:30;14.40;64.30
22645;DHT22;11489;50.834;6.752;2022-07-06T04:47:56;14.40;63.90
22645;DHT22;11489;50.834;6.752;2022-07-06T04:50:22;14.30;63.60
22645;DHT22;11489;50.834;6.752;2022-07-06T04:52:47;14.20;63.30
22645;DHT22;11489;50.834;6.752;2022-07-06T04:55:13;14.10;63.20
22645;DHT22;11489;50.834;6.752;2022-07-06T04:57:40;14.00;63.20
22645;DHT22;11489;50.834;6.752;2022-07-06T05:00:06;13.90;63.90
22645;DHT22;11489;50.834;6.752;2022-07-06T05:02:32;13.80;63.30
22645;DHT22;11489;50.834;6.752;2022-07-06T05:04:58;13.80;63.50
22645;DHT22;11489;50.834;6.752;2022-07-06T05:07:24;13.70;63.60
22645;DHT22;11489;50.834;6.752;2022-07-06T05:09:55;13.60;63.70
22645;DHT22;11489;50.834;6.752;2022-07-06T05:12:20;13.50;63.80
22645;DHT22;11489;50.834;6.752;2022-07-06T05:14:46;13.40;63.90
22645;DHT22;11489;50.834;6.752;2022-07-06T05:17:12;13.40;64.00
22645;DHT22;11489;50.834;6.752;2022-07-06T05:19:37;13.30;64.30
22645;DHT22;11489;50.834;6.752;2022-07-06T05:22:03;13.30;64.70
22645;DHT22;11489;50.834;6.752;2022-07-06T05:24:29;13.20;64.90
22645;DHT22;11489;50.834;6.752;2022-07-06T05:26:54;13.20;65.20
22645;DHT22;11489;50.834;6.752;2022-07-06T05:29:20;13.20;65.40
22645;DHT22;11489;50.834;6.752;2022-07-06T05:31:46;13.20;65.60
22645;DHT22;11489;50.834;6.752;2022-07-06T05:34:11;13.20;65.80
22645;DHT22;11489;50.834;6.752;2022-07-06T05:36:37;13.30;66.00
22645;DHT22;11489;50.834;6.752;2022-07-06T05:39:03;13.30;66.10
22645;DHT22;11489;50.834;6.752;2022-07-06T05:41:28;13.40;66.30
22645;DHT22;11489;50.834;6.752;2022-07-06T05:43:54;13.50;66.30
22645;DHT22;11489;50.834;6.752;2022-07-06T05:46:19;13.60;66.40
22645;DHT22;11489;50.834;6.752;2022-07-06T05:48:45;13.70;66.40
22645;DHT22;11489;50.834;6.752;2022-07-06T05:51:29;13.80;66.30
22645;DHT22;11489;50.834;6.752;2022-07-06T05:53:55;13.90;66.00
22645;DHT22;11489;50.834;6.752;2022-07-06T05:56:21;13.90;65.80
22645;DHT22;11489;50.834;6.752;2022-07-06T05:58:46;14.00;65.90
22645;DHT22;11489;50.834;6.752;2022-07-06T06:01:12;14.10;66.00
22645;DHT22;11489;50.834;6.752;2022-07-06T06:03:38;14.10;66.00
22645;DHT22;11489;50.834;6.752;2022-07-06T06:06:03;14.20;65.60
22645;DHT22;11489;50.834;6.752;2022-07-06T06:08:29;14.30;65.90
22645;DHT22;11489;50.834;6.752;2022-07-06T06:10:55;14.30;65.80
22645;DHT22;11489;50.834;6.752;2022-07-06T06:13:20;14.40;65.50
22645;DHT22;11489;50.834;6.752;2022-07-06T06:15:46;14.50;65.40
22645;DHT22;11489;50.834;6.752;2022-07-06T06:18:12;14.50;65.40
22645;DHT22;11489;50.834;6.752;2022-07-06T06:20:37;14.60;65.50
22645;DHT22;11489;50.834;6.752;2022-07-06T06:23:03;14.70;65.50
22645;DHT22;11489;50.834;6.752;2022-07-06T06:25:34;14.80;65.20
22645;DHT22;11489;50.834;6.752;2022-07-06T06:28:00;14.90;65.30
22645;DHT22;11489;50.834;6.752;2022-07-06T06:30:27;15.00;65.40
22645;DHT22;11489;50.834;6.752;2022-07-06T06:35:33;15.20;65.10
22645;DHT22;11489;50.834;6.752;2022-07-06T06:38:00;15.40;64.70
22645;DHT22;11489;50.834;6.752;2022-07-06T06:40:26;15.40;64.50
22645;DHT22;11489;50.834;6.752;2022-07-06T06:42:52;15.50;64.30
22645;DHT22;11489;50.834;6.752;2022-07-06T06:45:17;15.50;64.20
22645;DHT22;11489;50.834;6.752;2022-07-06T06:47:43;15.70;64.20
22645;DHT22;11489;50.834;6.752;2022-07-06T06:50:08;15.70;64.00
22645;DHT22;11489;50.834;6.752;2022-07-06T06:52:34;15.80;63.90
22645;DHT22;11489;50.834;6.752;2022-07-06T06:55:00;15.90;63.80
22645;DHT22;11489;50.834;6.752;2022-07-06T06:57:26;15.90;63.60
22645;DHT22;11489;50.834;6.752;2022-07-06T06:59:51;16.10;63.60
22645;DHT22;11489;50.834;6.752;2022-07-06T07:02:17;16.10;63.40
22645;DHT22;11489;50.834;6.752;2022-07-06T07:04:43;16.20;63.30
22645;DHT22;11489;50.834;6.752;2022-07-06T07:07:08;16.30;63.20
22645;DHT22;11489;50.834;6.752;2022-07-06T07:09:34;16.40;63.20
22645;DHT22;11489;50.834;6.752;2022-07-06T07:12:00;16.50;63.20
22645;DHT22;11489;50.834;6.752;2022-07-06T07:14:25;16.70;63.10
22645;DHT22;11489;50.834;6.752;2022-07-06T07:16:53;16.90;63.00
22645;DHT22;11489;50.834;6.752;2022-07-06T07:19:18;17.00;62.80
22645;DHT22;11489;50.834;6.752;2022-07-06T07:21:44;17.20;62.60
22645;DHT22;11489;50.834;6.752;2022-07-06T07:24:10;17.40;62.30
22645;DHT22;11489;50.834;6.752;2022-07-06T07:26:36;17.60;62.00
22645;DHT22;11489;50.834;6.752;2022-07-06T07:29:02;17.70;61.50
22645;DHT22;11489;50.834;6.752;2022-07-06T07:31:28;17.90;61.10
22645;DHT22;11489;50.834;6.752;2022-07-06T07:33:54;18.00;61.00
22645;DHT22;11489;50.834;6.752;2022-07-06T07:36:23;18.10;60.70
22645;DHT22;11489;50.834;6.752;2022-07-06T07:38:49;18.20;60.00
22645;DHT22;11489;50.834;6.752;2022-07-06T07:41:15;18.20;59.60
22645;DHT22;11489;50.834;6.752;2022-07-06T07:43:42;18.30;59.60
22645;DHT22;11489;50.834;6.752;2022-07-06T07:46:08;18.30;59.20
22645;DHT22;11489;50.834;6.752;2022-07-06T07:48:34;18.40;59.40
22645;DHT22;11489;50.834;6.752;2022-07-06T07:50:59;18.50;59.40
22645;DHT22;11489;50.834;6.752;2022-07-06T07:53:25;18.60;58.90
22645;DHT22;11489;50.834;6.752;2022-07-06T07:55:52;18.60;58.50
22645;DHT22;11489;50.834;6.752;2022-07-06T07:58:17;18.70;58.20
22645;DHT22;11489;50.834;6.752;2022-07-06T08:00:43;18.60;57.90
22645;DHT22;11489;50.834;6.752;2022-07-06T08:03:09;18.60;57.80
22645;DHT22;11489;50.834;6.752;2022-07-06T08:05:35;18.50;57.60
22645;DHT22;11489;50.834;6.752;2022-07-06T08:08:00;18.40;57.40
22645;DHT22;11489;50.834;6.752;2022-07-06T08:10:26;18.30;57.40
22645;DHT22;11489;50.834;6.752;2022-07-06T08:12:52;18.20;57.20
22645;DHT22;11489;50.834;6.752;2022-07-06T08:15:18;18.10;56.90
22645;DHT22;11489;50.834;6.752;2022-07-06T08:17:44;18.00;57.00
22645;DHT22;11489;50.834;6.752;2022-07-06T08:20:10;17.90;57.30
22645;DHT22;11489;50.834;6.752;2022-07-06T08:22:36;17.80;57.50
22645;DHT22;11489;50.834;6.752;2022-07-06T08:25:03;17.80;57.70
22645;DHT22;11489;50.834;6.752;2022-07-06T08:27:29;17.70;57.70
22645;DHT22;11489;50.834;6.752;2022-07-06T08:29:55;17.70;57.80
22645;DHT22;11489;50.834;6.752;2022-07-06T08:32:21;17.60;57.40
22645;DHT22;11489;50.834;6.752;2022-07-06T08:34:47;17.60;57.20
22645;DHT22;11489;50.834;6.752;2022-07-06T08:37:13;17.60;56.90
22645;DHT22;11489;50.834;6.752;2022-07-06T08:39:39;17.50;57.20
22645;DHT22;11489;50.834;6.752;2022-07-06T08:42:05;17.50;57.30
22645;DHT22;11489;50.834;6.752;2022-07-06T08:44:33;17.50;57.30
22645;DHT22;11489;50.834;6.752;2022-07-06T08:47:04;17.40;57.40
22645;DHT22;11489;50.834;6.752;2022-07-06T08:49:31;17.40;57.50
22645;DHT22;11489;50.834;6.752;2022-07-06T08:51:57;17.40;57.50
22645;DHT22;11489;50.834;6.752;2022-07-06T08:54:24;17.40;57.30
22645;DHT22;11489;50.834;6.752;2022-07-06T08:56:50;17.40;57.20
22645;DHT22;11489;50.834;6.752;2022-07-06T08:59:16;17.40;57.40
22645;DHT22;11489;50.834;6.752;2022-07-06T09:01:43;17.40;57.60
22645;DHT22;11489;50.834;6.752;2022-07-06T09:04:11;17.40;57.70
22645;DHT22;11489;50.834;6.752;2022-07-06T09:06:38;17.50;57.70
22645;DHT22;11489;50.834;6.752;2022-07-06T09:09:07;17.60;57.50
22645;DHT22;11489;50.834;6.752;2022-07-06T09:11:33;17.60;57.60
22645;DHT22;11489;50.834;6.752;2022-07-06T09:13:59;17.70;57.40
22645;DHT22;11489;50.834;6.752;2022-07-06T09:16:27;17.70;57.40
22645;DHT22;11489;50.834;6.752;2022-07-06T09:18:55;17.80;57.10
22645;DHT22;11489;50.834;6.752;2022-07-06T09:21:29;17.90;56.80
22645;DHT22;11489;50.834;6.752;2022-07-06T09:23:58;17.90;56.40
22645;DHT22;11489;50.834;6.752;2022-07-06T09:26:25;18.00;56.30
22645;DHT22;11489;50.834;6.752;2022-07-06T09:28:51;18.00;56.30
22645;DHT22;11489;50.834;6.752;2022-07-06T09:31:17;18.10;56.40
22645;DHT22;11489;50.834;6.752;2022-07-06T09:33:57;18.20;56.40
22645;DHT22;11489;50.834;6.752;2022-07-06T09:36:41;18.20;56.30
22645;DHT22;11489;50.834;6.752;2022-07-06T09:39:21;18.30;56.60
22645;DHT22;11489;50.834;6.752;2022-07-06T09:41:50;18.50;56.00
22645;DHT22;11489;50.834;6.752;2022-07-06T09:44:27;18.50;55.80
22645;DHT22;11489;50.834;6.752;2022-07-06T09:46:57;18.60;56.00
22645;DHT22;11489;50.834;6.752;2022-07-06T09:49:23;18.70;56.00
22645;DHT22;11489;50.834;6.752;2022-07-06T09:51:52;18.80;55.90
22645;DHT22;11489;50.834;6.752;2022-07-06T09:54:18;18.90;55.80
22645;DHT22;11489;50.834;6.752;2022-07-06T09:56:46;19.10;55.70
22645;DHT22;11489;50.834;6.752;2022-07-06T09:59:17;19.30;55.30
22645;DHT22;11489;50.834;6.752;2022-07-06T10:01:44;19.40;55.20
22645;DHT22;11489;50.834;6.752;2022-07-06T10:04:12;19.50;55.20
22645;DHT22;11489;50.834;6.752;2022-07-06T10:06:44;19.70;55.20
22645;DHT22;11489;50.834;6.752;2022-07-06T10:09:10;19.90;55.00
22645;DHT22;11489;50.834;6.752;2022-07-06T10:11:49;20.00;54.60
22645;DHT22;11489;50.834;6.752;2022-07-06T10:14:18;20.30;54.00
22645;DHT22;11489;50.834;6.752;2022-07-06T10:16:46;20.50;54.20
22645;DHT22;11489;50.834;6.752;2022-07-06T10:19:14;20.70;54.00
22645;DHT22;11489;50.834;6.752;2022-07-06T10:21:40;20.90;53.30
22645;DHT22;11489;50.834;6.752;2022-07-06T10:24:07;21.10;53.20
22645;DHT22;11489;50.834;6.752;2022-07-06T10:26:34;21.30;53.10
22645;DHT22;11489;50.834;6.752;2022-07-06T10:29:02;21.70;53.10
22645;DHT22;11489;50.834;6.752;2022-07-06T10:31:29;21.90;53.00
22645;DHT22;11489;50.834;6.752;2022-07-06T10:33:57;22.30;52.70
22645;DHT22;11489;50.834;6.752;2022-07-06T10:36:24;22.70;52.00
22645;DHT22;11489;50.834;6.752;2022-07-06T10:38:51;23.10;51.80
22645;DHT22;11489;50.834;6.752;2022-07-06T10:41:18;23.50;51.40
22645;DHT22;11489;50.834;6.752;2022-07-06T10:43:46;23.80;50.90
22645;DHT22;11489;50.834;6.752;2022-07-06T10:46:15;24.00;49.30
22645;DHT22;11489;50.834;6.752;2022-07-06T10:48:43;24.20;48.80
22645;DHT22;11489;50.834;6.752;2022-07-06T10:51:11;24.30;48.50
22645;DHT22;11489;50.834;6.752;2022-07-06T10:53:39;24.40;48.10
22645;DHT22;11489;50.834;6.752;2022-07-06T10:58:49;24.50;47.20
22645;DHT22;11489;50.834;6.752;2022-07-06T11:01:18;24.50;45.90
22645;DHT22;11489;50.834;6.752;2022-07-06T11:04:05;24.30;46.20
22645;DHT22;11489;50.834;6.752;2022-07-06T11:06:39;24.00;43.90
22645;DHT22;11489;50.834;6.752;2022-07-06T11:09:09;23.70;44.10
22645;DHT22;11489;50.834;6.752;2022-07-06T11:17:02;23.10;45.70
22645;DHT22;11489;50.834;6.752;2022-07-06T11:19:29;23.00;45.70
22645;DHT22;11489;50.834;6.752;2022-07-06T11:21:58;22.90;45.40
22645;DHT22;11489;50.834;6.752;2022-07-06T11:24:26;22.90;45.80
22645;DHT22;11489;50.834;6.752;2022-07-06T11:26:53;22.90;46.20
22645;DHT22;11489;50.834;6.752;2022-07-06T11:29:21;23.10;46.80
22645;DHT22;11489;50.834;6.752;2022-07-06T11:31:48;23.30;47.20
22645;DHT22;11489;50.834;6.752;2022-07-06T11:34:19;23.60;46.50
22645;DHT22;11489;50.834;6.752;2022-07-06T11:36:45;23.80;45.50
22645;DHT22;11489;50.834;6.752;2022-07-06T11:39:12;24.00;45.10
22645;DHT22;11489;50.834;6.752;2022-07-06T11:41:38;24.00;44.80
22645;DHT22;11489;50.834;6.752;2022-07-06T11:44:04;24.00;44.60
22645;DHT22;11489;50.834;6.752;2022-07-06T11:46:31;24.00;44.50
22645;DHT22;11489;50.834;6.752;2022-07-06T11:48:58;24.00;44.50
22645;DHT22;11489;50.834;6.752;2022-07-06T11:51:26;24.00;44.30
22645;DHT22;11489;50.834;6.752;2022-07-06T11:53:55;24.00;43.90
22645;DHT22;11489;50.834;6.752;2022-07-06T11:56:22;23.90;43.70
22645;DHT22;11489;50.834;6.752;2022-07-06T11:58:56;23.90;43.70
22645;DHT22;11489;50.834;6.752;2022-07-06T12:01:23;23.90;42.80
22645;DHT22;11489;50.834;6.752;2022-07-06T12:03:50;23.80;43.00
22645;DHT22;11489;50.834;6.752;2022-07-06T12:06:21;23.70;43.10
22645;DHT22;11489;50.834;6.752;2022-07-06T12:08:50;23.60;43.30
22645;DHT22;11489;50.834;6.752;2022-07-06T12:11:27;23.50;42.60
22645;DHT22;11489;50.834;6.752;2022-07-06T12:13:59;23.50;42.30
22645;DHT22;11489;50.834;6.752;2022-07-06T12:16:34;23.40;42.60
22645;DHT22;11489;50.834;6.752;2022-07-06T12:19:02;23.40;42.50
22645;DHT22;11489;50.834;6.752;2022-07-06T12:21:28;23.30;43.10
22645;DHT22;11489;50.834;6.752;2022-07-06T12:23:54;23.30;42.90
22645;DHT22;11489;50.834;6.752;2022-07-06T12:26:25;23.30;42.40
22645;DHT22;11489;50.834;6.752;2022-07-06T12:29:05;23.30;42.60
22645;DHT22;11489;50.834;6.752;2022-07-06T12:31:43;23.30;42.70
22645;DHT22;11489;50.834;6.752;2022-07-06T12:34:15;23.40;43.40
22645;DHT22;11489;50.834;6.752;2022-07-06T12:36:52;23.50;42.90
22645;DHT22;11489;50.834;6.752;2022-07-06T12:39:21;23.60;42.90
22645;DHT22;11489;50.834;6.752;2022-07-06T12:41:50;23.70;42.70
22645;DHT22;11489;50.834;6.752;2022-07-06T12:44:22;23.60;41.40
22645;DHT22;11489;50.834;6.752;2022-07-06T12:47:02;23.50;41.70
22645;DHT22;11489;50.834;6.752;2022-07-06T12:49:29;23.40;41.90
22645;DHT22;11489;50.834;6.752;2022-07-06T12:54:31;23.50;42.70
22645;DHT22;11489;50.834;6.752;2022-07-06T12:57:06;23.70;42.80
22645;DHT22;11489;50.834;6.752;2022-07-06T12:59:37;23.90;42.80
22645;DHT22;11489;50.834;6.752;2022-07-06T13:02:05;24.10;42.80
22645;DHT22;11489;50.834;6.752;2022-07-06T13:04:31;24.30;42.80
22645;DHT22;11489;50.834;6.752;2022-07-06T13:06:58;24.50;42.60
22645;DHT22;11489;50.834;6.752;2022-07-06T13:09:24;24.60;42.30
22645;DHT22;11489;50.834;6.752;2022-07-06T13:11:50;24.60;41.90
22645;DHT22;11489;50.834;6.752;2022-07-06T13:14:17;24.60;41.20
22645;DHT22;11489;50.834;6.752;2022-07-06T13:16:44;24.50;41.20
22645;DHT22;11489;50.834;6.752;2022-07-06T13:19:10;24.50;40.80
22645;DHT22;11489;50.834;6.752;2022-07-06T13:21:36;24.40;41.00
22645;DHT22;11489;50.834;6.752;2022-07-06T13:24:02;24.40;41.00
22645;DHT22;11489;50.834;6.752;2022-07-06T13:26:28;24.50;41.10
22645;DHT22;11489;50.834;6.752;2022-07-06T13:28:54;24.50;41.20
22645;DHT22;11489;50.834;6.752;2022-07-06T13:31:20;24.60;41.30
22645;DHT22;11489;50.834;6.752;2022-07-06T13:33:45;24.70;40.40
22645;DHT22;11489;50.834;6.752;2022-07-06T13:36:11;24.80;40.50
22645;DHT22;11489;50.834;6.752;2022-07-06T13:38:37;24.80;40.10
22645;DHT22;11489;50.834;6.752;2022-07-06T13:41:03;24.80;40.20
22645;DHT22;11489;50.834;6.752;2022-07-06T13:43:29;24.80;40.00
22645;DHT22;11489;50.834;6.752;2022-07-06T13:46:05;24.80;39.90
22645;DHT22;11489;50.834;6.752;2022-07-06T13:48:32;24.70;39.40
22645;DHT22;11489;50.834;6.752;2022-07-06T13:50:58;24.60;39.70
22645;DHT22;11489;50.834;6.752;2022-07-06T13:53:23;24.60;40.50
22645;DHT22;11489;50.834;6.752;2022-07-06T13:55:49;24.60;40.20
22645;DHT22;11489;50.834;6.752;2022-07-06T13:58:15;24.70;40.30
22645;DHT22;11489;50.834;6.752;2022-07-06T14:00:41;24.80;40.30
22645;DHT22;11489;50.834;6.752;2022-07-06T14:03:07;25.00;40.20
22645;DHT22;11489;50.834;6.752;2022-07-06T14:05:34;25.20;40.00
22645;DHT22;11489;50.834;6.752;2022-07-06T14:08:00;25.30;38.80
22645;DHT22;11489;50.834;6.752;2022-07-06T14:10:26;25.20;38.70
22645;DHT22;11489;50.834;6.752;2022-07-06T14:12:52;25.20;38.10
22645;DHT22;11489;50.834;6.752;2022-07-06T14:15:18;25.00;38.00
22645;DHT22;11489;50.834;6.752;2022-07-06T14:17:43;24.90;37.70
22645;DHT22;11489;50.834;6.752;2022-07-06T14:20:09;24.80;38.00
22645;DHT22;11489;50.834;6.752;2022-07-06T14:22:35;24.70;38.30
22645;DHT22;11489;50.834;6.752;2022-07-06T14:25:01;24.70;38.50
22645;DHT22;11489;50.834;6.752;2022-07-06T14:27:26;24.70;38.50
22645;DHT22;11489;50.834;6.752;2022-07-06T14:29:52;24.80;38.90
22645;DHT22;11489;50.834;6.752;2022-07-06T14:32:18;24.90;39.00
22645;DHT22;11489;50.834;6.752;2022-07-06T14:34:43;25.10;38.70
22645;DHT22;11489;50.834;6.752;2022-07-06T14:37:09;25.20;38.20
22645;DHT22;11489;50.834;6.752;2022-07-06T14:39:35;25.40;37.90
22645;DHT22;11489;50.834;6.752;2022-07-06T14:42:01;25.40;38.00
22645;DHT22;11489;50.834;6.752;2022-07-06T14:44:26;25.40;37.50
22645;DHT22;11489;50.834;6.752;2022-07-06T14:46:52;25.30;37.30
22645;DHT22;11489;50.834;6.752;2022-07-06T14:49:18;25.20;37.40
22645;DHT22;11489;50.834;6.752;2022-07-06T14:51:44;25.20;37.40
22645;DHT22;11489;50.834;6.752;2022-07-06T14:54:10;25.20;37.40
22645;DHT22;11489;50.834;6.752;2022-07-06T14:56:36;25.20;37.50
22645;DHT22;11489;50.834;6.752;2022-07-06T14:59:02;25.30;37.70
22645;DHT22;11489;50.834;6.752;2022-07-06T15:01:28;25.50;37.80
22645;DHT22;11489;50.834;6.752;2022-07-06T15:03:53;25.60;37.50
22645;DHT22;11489;50.834;6.752;2022-07-06T15:06:19;25.60;36.80
22645;DHT22;11489;50.834;6.752;2022-07-06T15:08:45;25.70;36.90
22645;DHT22;11489;50.834;6.752;2022-07-06T15:11:31;25.70;36.80
22645;DHT22;11489;50.834;6.752;2022-07-06T15:13:57;25.70;36.90
22645;DHT22;11489;50.834;6.752;2022-07-06T15:16:22;25.70;36.80
22645;DHT22;11489;50.834;6.752;2022-07-06T15:18:50;25.80;36.50
22645;DHT22;11489;50.834;6.752;2022-07-06T15:21:16;25.70;36.70
22645;DHT22;11489;50.834;6.752;2022-07-06T15:23:41;25.80;36.50
22645;DHT22;11489;50.834;6.752;2022-07-06T15:26:07;25.80;35.80
22645;DHT22;11489;50.834;6.752;2022-07-06T15:28:33;25.70;35.80
22645;DHT22;11489;50.834;6.752;2022-07-06T15:30:58;25.70;36.10
22645;DHT22;11489;50.834;6.752;2022-07-06T15:33:24;25.70;36.50
22645;DHT22;11489;50.834;6.752;2022-07-06T15:35:50;25.80;36.40
22645;DHT22;11489;50.834;6.752;2022-07-06T15:38:16;25.90;36.60
22645;DHT22;11489;50.834;6.752;2022-07-06T15:40:42;26.00;36.60
22645;DHT22;11489;50.834;6.752;2022-07-06T15:43:11;26.10;36.50
22645;DHT22;11489;50.834;6.752;2022-07-06T15:45:37;26.10;35.80